Time;durP1;ratioP1;P1;durP2;ratioP2;P2;SDS_P1;SDS_P2;PMS_P1;PMS_P2;Temp;Humidity;BMP_temperature;BMP_pressure;BME280_temperature;BME280_humidity;BME280_pressure;Samples;Min_cycle;Max_cycle;Signal;HPM_P1;HPM_P2
2023/03/09 00:01:49;;;;;;;3.80;2.00;;;12.10;94.80;;;;;;5113793;28;20066;-53
2023/03/09 00:04:16;;;;;;;6.22;3.35;;;12.00;94.60;;;;;;5113401;28;20061;-52
2023/03/09 00:06:43;;;;;;;3.65;2.35;;;12.10;95.00;;;;;;5113598;28;20118;-52
2023/03/09 00:09:09;;;;;;;9.10;3.45;;;12.00;95.00;;;;;;5113352;28;20031;-52
2023/03/09 00:11:35;;;;;;;6.85;3.30;;;11.80;95.20;;;;;;5061656;28;20047;-52
2023/03/09 00:14:01;;;;;;;5.43;2.95;;;11.70;95.70;;;;;;5114454;28;20118;-54
2023/03/09 00:16:28;;;;;;;3.63;2.45;;;11.50;96.10;;;;;;5114343;28;20136;-52
2023/03/09 00:18:56;;;;;;;5.63;2.20;;;;;;;;;;5103467;28;20096;-52
2023/03/09 00:21:34;;;;;;;3.88;2.08;;;11.30;96.70;;;;;;5093978;28;20040;-56
2023/03/09 00:24:04;;;;;;;4.18;2.15;;;11.20;97.10;;;;;;5094220;28;20030;-53
2023/03/09 00:26:30;;;;;;;4.55;2.50;;;11.30;97.10;;;;;;5094145;28;20036;-54
2023/03/09 00:28:56;;;;;;;6.03;2.33;;;11.20;97.40;;;;;;5092118;28;20074;-53
2023/03/09 00:31:22;;;;;;;2.92;1.80;;;11.00;97.70;;;;;;5094249;28;20340;-53
2023/03/09 00:33:48;;;;;;;5.72;2.80;;;11.00;98.00;;;;;;5094417;28;20040;-53
2023/03/09 00:36:16;;;;;;;5.15;2.30;;;11.00;98.30;;;;;;5094491;28;20032;-52
2023/03/09 00:38:42;;;;;;;6.30;3.20;;;11.00;98.30;;;;;;5091983;28;20044;-54
2023/03/09 00:41:08;;;;;;;2.70;2.00;;;11.00;98.50;;;;;;5094464;28;20039;-57
2023/03/09 00:43:34;;;;;;;3.33;1.92;;;10.90;98.70;;;;;;5094410;28;20103;-53
2023/03/09 00:46:00;;;;;;;3.90;2.00;;;10.80;99.30;;;;;;5094523;28;20028;-51
2023/03/09 00:48:26;;;;;;;3.80;2.17;;;10.70;99.70;;;;;;5094253;28;20059;-52
2023/03/09 00:50:52;;;;;;;4.57;2.40;;;10.70;99.90;;;;;;5075222;28;20036;-53
2023/03/09 00:53:17;;;;;;;5.75;3.03;;;10.70;99.90;;;;;;5094634;28;20047;-52
2023/03/09 00:55:43;;;;;;;4.32;2.55;;;10.70;99.90;;;;;;5077969;28;20081;-52
2023/03/09 00:58:10;;;;;;;4.15;2.38;;;10.60;99.90;;;;;;5096838;28;20107;-51
2023/03/09 01:00:37;;;;;;;4.93;2.40;;;10.60;99.90;;;;;;5096756;28;20034;-52
2023/03/09 01:03:03;;;;;;;3.45;1.95;;;10.70;99.90;;;;;;5078062;28;20082;-52
2023/03/09 01:05:29;;;;;;;5.35;3.00;;;10.70;99.90;;;;;;5096286;28;20375;-52
2023/03/09 01:07:55;;;;;;;6.57;3.45;;;10.70;99.90;;;;;;5096705;28;20020;-52
2023/03/09 01:10:21;;;;;;;6.50;3.85;;;10.70;99.90;;;;;;5096556;28;20040;-52
2023/03/09 01:12:46;;;;;;;6.18;3.35;;;10.60;99.90;;;;;;5094451;28;20131;-52
2023/03/09 01:15:12;;;;;;;5.38;3.40;;;10.50;99.90;;;;;;5095846;28;20461;-52
2023/03/09 01:17:39;;;;;;;5.45;3.80;;;10.60;99.90;;;;;;5096440;28;20116;-53
2023/03/09 01:20:05;;;;;;;5.97;3.58;;;10.60;99.90;;;;;;5096531;28;20035;-52
2023/03/09 01:22:31;;;;;;;4.55;2.78;;;10.60;99.90;;;;;;5010726;28;20036;-52
2023/03/09 01:24:57;;;;;;;6.50;3.90;;;10.60;99.90;;;;;;5096080;28;20024;-51
2023/03/09 01:27:22;;;;;;;4.97;3.25;;;10.70;99.90;;;;;;5096266;28;20089;-52
2023/03/09 01:29:48;;;;;;;9.75;3.70;;;10.60;99.90;;;;;;5077480;28;20047;-54
2023/03/09 01:32:14;;;;;;;6.07;3.50;;;10.60;99.90;;;;;;5095945;28;20039;-52
2023/03/09 01:34:40;;;;;;;7.03;3.40;;;10.70;99.90;;;;;;5095970;28;20384;-52
2023/03/09 01:37:06;;;;;;;8.00;3.83;;;10.60;99.90;;;;;;5095962;28;20028;-52
2023/03/09 01:39:31;;;;;;;6.65;4.25;;;10.70;99.90;;;;;;5093996;28;20044;-52
2023/03/09 01:41:57;;;;;;;4.25;2.97;;;10.70;99.90;;;;;;5094151;28;20490;-52
2023/03/09 01:44:23;;;;;;;5.90;2.70;;;10.50;99.90;;;;;;5095873;28;20020;-51
2023/03/09 01:46:56;;;;;;;5.32;2.70;;;10.50;99.90;;;;;;5095680;28;20094;-52
2023/03/09 01:49:40;;;;;;;10.65;2.20;;;10.50;99.90;;;;;;5095548;28;20039;-52
2023/03/09 01:52:09;;;;;;;5.65;2.97;;;10.50;99.90;;;;;;5095194;28;20036;-52
2023/03/09 01:54:41;;;;;;;11.43;4.20;;;10.60;99.90;;;;;;5095381;28;20033;-52
2023/03/09 01:57:25;;;;;;;;;;;10.70;99.90;;;;;;5096117;28;20108;-51
2023/03/09 01:59:53;;;;;;;4.78;2.47;;;10.70;99.90;;;;;;5095300;28;19911;-52
2023/03/09 02:02:22;;;;;;;5.00;2.92;;;10.70;99.90;;;;;;5095169;28;20027;-52
2023/03/09 02:04:54;;;;;;;5.07;2.70;;;10.60;99.90;;;;;;5094791;28;20161;-52
2023/03/09 02:07:23;;;;;;;3.58;2.53;;;10.50;99.90;;;;;;5095234;28;20491;-52
2023/03/09 02:09:53;;;;;;;3.88;2.00;;;10.50;99.90;;;;;;5076382;28;20039;-52
2023/03/09 02:12:21;;;;;;;3.13;1.77;;;10.40;99.90;;;;;;5095433;28;20036;-52
2023/03/09 02:14:47;;;;;;;3.78;2.20;;;10.20;99.90;;;;;;5095241;28;20527;-52
2023/03/09 02:17:14;;;;;;;4.53;2.67;;;10.20;99.90;;;;;;5095006;28;20040;-52
2023/03/09 02:19:52;;;;;;;3.13;1.80;;;10.20;99.90;;;;;;5095000;28;20467;-52
2023/03/09 02:22:17;;;;;;;4.13;2.63;;;10.20;99.90;;;;;;5093063;28;20368;-52
2023/03/09 02:25:02;;;;;;;3.83;2.47;;;10.30;99.90;;;;;;5095246;28;20030;-52
2023/03/09 02:27:30;;;;;;;4.10;1.40;;;10.30;99.90;;;;;;5094792;28;20399;-51
2023/03/09 02:29:57;;;;;;;3.83;1.75;;;10.20;99.90;;;;;;5094775;28;20028;-52
2023/03/09 02:32:23;;;;;;;3.10;1.85;;;10.30;99.90;;;;;;5094677;28;20032;-52
2023/03/09 02:34:49;;;;;;;3.28;1.95;;;10.40;99.90;;;;;;5095044;28;20027;-52
2023/03/09 02:37:38;;;;;;;3.28;1.90;;;10.40;99.90;;;;;;5094681;28;20027;-52
2023/03/09 02:40:10;;;;;;;3.30;2.00;;;10.50;99.90;;;;;;5094845;28;20023;-52
2023/03/09 02:42:37;;;;;;;3.50;1.38;;;10.60;99.90;;;;;;5094558;28;20028;-52
2023/03/09 02:45:04;;;;;;;3.60;1.52;;;10.70;99.90;;;;;;5094710;28;20070;-52
2023/03/09 02:47:29;;;;;;;3.80;1.77;;;10.80;99.90;;;;;;5094422;28;20028;-52
2023/03/09 02:49:55;;;;;;;5.90;2.20;;;10.90;99.90;;;;;;5094358;28;20106;-52
2023/03/09 02:52:21;;;;;;;2.85;2.15;;;10.90;99.90;;;;;;5094242;28;20040;-53
2023/03/09 02:54:47;;;;;;;2.15;1.02;;;11.00;99.90;;;;;;5094325;28;20019;-52
2023/03/09 02:57:13;;;;;;;2.10;0.90;;;11.00;99.90;;;;;;5094444;28;20032;-51
2023/03/09 02:59:38;;;;;;;2.75;1.60;;;11.10;99.90;;;;;;5094026;28;20032;-52
2023/03/09 03:02:04;;;;;;;3.58;2.03;;;11.00;99.90;;;;;;5094431;28;20039;-52
2023/03/09 03:04:30;;;;;;;7.03;2.97;;;11.10;99.90;;;;;;5075517;28;20043;-52
2023/03/09 03:06:56;;;;;;;2.50;1.98;;;11.10;99.90;;;;;;5094156;28;20028;-52
2023/03/09 03:09:22;;;;;;;2.92;1.65;;;11.10;99.90;;;;;;5092218;28;20028;-52
2023/03/09 03:11:48;;;;;;;3.72;1.90;;;11.10;99.90;;;;;;5093836;28;20036;-52
2023/03/09 03:14:13;;;;;;;3.63;1.90;;;11.00;99.90;;;;;;5093913;28;20063;-52
2023/03/09 03:16:39;;;;;;;2.63;1.50;;;11.10;99.90;;;;;;5092946;28;20047;-52
2023/03/09 03:19:05;;;;;;;4.43;1.90;;;11.10;99.90;;;;;;5084836;28;20392;-52
2023/03/09 03:21:31;;;;;;;2.65;1.42;;;11.20;99.90;;;;;;5073539;28;20036;-52
2023/03/09 03:23:56;;;;;;;3.17;1.42;;;11.20;99.90;;;;;;5073534;28;20039;-52
2023/03/09 03:26:22;;;;;;;2.80;1.60;;;11.10;99.90;;;;;;5350452;22;20050;-51
2023/03/09 03:28:47;;;;;;;2.65;1.80;;;11.20;99.90;;;;;;5134802;27;20023;-51
2023/03/09 03:31:13;;;;;;;2.25;1.88;;;11.20;99.90;;;;;;5134611;27;20031;-51
2023/03/09 03:33:39;;;;;;;1.90;1.50;;;11.20;99.90;;;;;;5134371;27;20076;-52
2023/03/09 03:36:05;;;;;;;2.92;1.85;;;11.30;99.90;;;;;;5115422;27;20424;-51
2023/03/09 03:38:31;;;;;;;3.30;1.90;;;11.30;99.90;;;;;;5098471;27;20035;-52
2023/03/09 03:40:57;;;;;;;4.25;2.15;;;11.40;99.90;;;;;;5134295;27;20030;-51
2023/03/09 03:43:22;;;;;;;3.88;1.85;;;11.40;99.90;;;;;;5115369;27;20052;-52
2023/03/09 03:45:48;;;;;;;2.75;1.90;;;11.40;99.90;;;;;;5134141;27;20073;-52
2023/03/09 03:48:14;;;;;;;3.42;2.10;;;11.40;99.90;;;;;;5134557;27;20031;-52
2023/03/09 03:50:40;;;;;;;3.55;2.15;;;11.40;99.90;;;;;;5134109;27;20033;-52
2023/03/09 03:53:06;;;;;;;3.95;1.67;;;11.30;99.90;;;;;;5134434;27;20478;-51
2023/03/09 03:55:32;;;;;;;3.38;1.60;;;11.20;99.90;;;;;;5081116;27;20050;-52
2023/03/09 03:57:57;;;;;;;1.55;1.30;;;11.20;99.90;;;;;;5134421;27;20027;-52
2023/03/09 04:00:26;;;;;;;2.97;1.80;;;11.20;99.90;;;;;;5134244;27;20564;-52
2023/03/09 04:02:52;;;;;;;2.75;1.80;;;11.20;99.90;;;;;;5134198;27;20030;-52
2023/03/09 04:05:18;;;;;;;3.35;2.50;;;11.10;99.90;;;;;;5134126;27;20025;-52
2023/03/09 04:07:43;;;;;;;2.75;1.70;;;11.20;99.90;;;;;;5081215;28;20066;-52
2023/03/09 04:10:10;;;;;;;2.95;2.00;;;11.20;99.90;;;;;;5134151;28;20034;-51
2023/03/09 04:12:36;;;;;;;4.20;2.47;;;11.30;99.90;;;;;;5097860;28;20050;-52
2023/03/09 04:15:01;;;;;;;5.30;2.03;;;11.40;99.90;;;;;;5133850;28;20031;-52
2023/03/09 04:17:27;;;;;;;2.55;1.98;;;11.40;99.90;;;;;;5081205;28;20120;-52
2023/03/09 04:19:53;;;;;;;3.67;2.65;;;11.40;99.90;;;;;;5081514;28;20165;-52
2023/03/09 04:22:19;;;;;;;3.08;2.25;;;11.50;99.90;;;;;;5134000;28;20031;-52
2023/03/09 04:24:48;;;;;;;4.13;2.20;;;11.50;99.90;;;;;;5134261;28;20442;-52
2023/03/09 04:27:14;;;;;;;3.13;1.83;;;11.50;99.90;;;;;;5111774;28;20056;-51
2023/03/09 04:29:40;;;;;;;4.13;2.20;;;11.60;99.90;;;;;;5116434;28;20030;-52
2023/03/09 04:32:06;;;;;;;4.93;2.20;;;11.50;99.90;;;;;;5117347;28;20096;-52
2023/03/09 04:34:32;;;;;;;4.55;2.30;;;11.50;99.90;;;;;;5117597;28;20032;-52
2023/03/09 04:36:57;;;;;;;3.78;2.00;;;11.50;99.90;;;;;;5117398;28;20031;-52
2023/03/09 04:39:24;;;;;;;3.42;2.17;;;11.50;99.90;;;;;;5117308;28;20031;-51
2023/03/09 04:41:49;;;;;;;2.83;1.88;;;11.50;99.90;;;;;;5117245;28;20030;-52
2023/03/09 04:44:15;;;;;;;3.95;2.00;;;11.50;99.90;;;;;;5117384;28;20023;-52
2023/03/09 04:46:41;;;;;;;4.70;2.30;;;11.40;99.90;;;;;;5116926;28;20028;-52
2023/03/09 04:49:07;;;;;;;3.90;2.42;;;11.50;99.90;;;;;;5115406;28;20478;-52
2023/03/09 04:51:33;;;;;;;3.35;2.58;;;11.70;99.90;;;;;;5116924;28;20064;-52
2023/03/09 04:53:58;;;;;;;6.53;3.17;;;12.00;99.90;;;;;;5115285;28;20371;-52
2023/03/09 04:56:24;;;;;;;5.65;3.80;;;;;;;;;;5117136;28;20026;-52
2023/03/09 04:58:50;;;;;;;7.30;2.75;;;12.50;99.90;;;;;;5116693;28;20042;-51
2023/03/09 05:01:16;;;;;;;4.50;2.45;;;12.60;99.90;;;;;;5117220;28;20375;-51
2023/03/09 05:03:42;;;;;;;9.07;3.42;;;12.70;99.90;;;;;;5116942;28;20032;-52
2023/03/09 05:06:07;;;;;;;7.95;3.53;;;12.80;99.90;;;;;;5116822;28;20024;-52
2023/03/09 05:08:34;;;;;;;13.93;4.32;;;12.80;99.90;;;;;;5116578;28;20066;-52
2023/03/09 05:10:59;;;;;;;6.10;3.90;;;12.70;99.90;;;;;;5116676;28;20034;-52
2023/03/09 05:13:25;;;;;;;8.00;4.00;;;12.80;99.90;;;;;;5116744;28;20032;-52
2023/03/09 05:15:51;;;;;;;8.27;4.10;;;12.80;99.90;;;;;;5116519;28;20023;-52
2023/03/09 05:18:17;;;;;;;6.50;3.40;;;12.80;99.90;;;;;;5117156;28;20027;-52
2023/03/09 05:20:42;;;;;;;4.07;2.75;;;12.60;99.90;;;;;;5116471;28;20428;-52
2023/03/09 05:23:08;;;;;;;4.25;2.58;;;12.20;99.90;;;;;;5116593;28;20031;-52
2023/03/09 05:25:34;;;;;;;4.28;2.63;;;12.20;99.90;;;;;;5121046;27;20047;-52
2023/03/09 05:27:59;;;;;;;4.65;3.08;;;12.20;99.90;;;;;;5137239;27;20030;-52
2023/03/09 05:30:25;;;;;;;5.55;4.13;;;11.90;99.90;;;;;;5050570;27;20035;-52
2023/03/09 05:32:51;;;;;;;4.55;3.25;;;11.70;99.90;;;;;;5136649;27;20393;-51
2023/03/09 05:35:18;;;;;;;4.88;2.65;;;11.60;99.90;;;;;;5136876;27;20023;-51
2023/03/09 05:37:45;;;;;;;3.13;2.10;;;11.70;99.90;;;;;;5136551;27;20027;-52
2023/03/09 05:40:12;;;;;;;3.03;2.17;;;11.70;99.90;;;;;;5135659;27;20772;-52
2023/03/09 05:42:39;;;;;;;4.05;2.50;;;11.70;99.90;;;;;;5117752;27;20043;-53
2023/03/09 05:45:05;;;;;;;2.70;2.03;;;11.80;99.90;;;;;;5137111;27;20470;-52
2023/03/09 05:47:32;;;;;;;6.28;3.38;;;11.90;99.90;;;;;;5136580;27;20532;-52
2023/03/09 05:49:58;;;;;;;4.00;2.90;;;12.00;99.90;;;;;;5136754;27;21370;-52
2023/03/09 05:52:24;;;;;;;3.72;2.83;;;12.00;99.90;;;;;;5136518;27;20035;-52
2023/03/09 05:54:50;;;;;;;4.93;2.92;;;12.00;99.90;;;;;;5136203;27;20034;-52
2023/03/09 05:57:15;;;;;;;5.40;2.60;;;12.10;99.90;;;;;;5136876;27;20366;-52
2023/03/09 05:59:41;;;;;;;6.57;3.30;;;12.10;99.90;;;;;;5136789;27;20026;-53
2023/03/09 06:02:07;;;;;;;4.90;3.05;;;12.30;99.90;;;;;;5136452;27;20081;-52
2023/03/09 06:04:33;;;;;;;2.72;2.33;;;12.50;99.90;;;;;;5136209;27;20023;-52
2023/03/09 06:06:59;;;;;;;4.32;2.90;;;12.60;99.90;;;;;;5136094;27;20035;-52
2023/03/09 06:09:25;;;;;;;4.63;2.95;;;12.70;99.90;;;;;;5136536;27;20156;-52
2023/03/09 06:11:51;;;;;;;8.77;3.58;;;12.90;99.90;;;;;;5135797;27;20027;-52
2023/03/09 06:14:17;;;;;;;8.75;5.70;;;13.00;99.90;;;;;;5136165;27;20102;-52
2023/03/09 06:16:43;;;;;;;35.67;13.35;;;13.00;99.90;;;;;;5135986;27;20104;-53
2023/03/09 06:19:09;;;;;;;57.13;19.58;;;13.40;99.90;;;;;;5136377;27;20107;-52
2023/03/09 06:21:35;;;;;;;45.78;15.98;;;13.50;99.90;;;;;;5136172;27;20016;-52
2023/03/09 06:24:01;;;;;;;17.73;7.53;;;13.50;99.90;;;;;;5135700;27;20026;-52
2023/03/09 06:26:26;;;;;;;91.78;43.47;;;13.60;99.90;;;;;;5135755;27;20405;-52
2023/03/09 06:28:52;;;;;;;221.55;134.73;;;13.60;99.90;;;;;;5099710;27;20038;-52
2023/03/09 06:31:18;;;;;;;9.70;8.70;;;;;;;;;;5135934;27;20460;-52
2023/03/09 06:33:45;;;;;;;13.82;12.45;;;;;;;;;;5135797;27;20027;-54
2023/03/09 06:36:12;;;;;;;16.23;14.52;;;;;;;;;;5082856;27;20031;-53
2023/03/09 06:38:38;;;;;;;13.32;9.82;;;;;;;;;;5135912;27;20381;-53
2023/03/09 06:41:04;;;;;;;13.93;10.45;;;;;;;;;;5082894;27;20066;-52
2023/03/09 06:43:30;;;;;;;11.18;8.77;;;;;;;;;;5135525;27;20031;-52
2023/03/09 06:45:57;;;;;;;3.33;2.63;;;;;;;;;;5135230;27;20075;-53
2023/03/09 06:48:23;;;;;;;4.22;2.33;;;;;;;;;;5135806;27;20347;-53
2023/03/09 06:50:49;;;;;;;4.90;2.70;;;;;;;;;;5135320;27;20114;-53
2023/03/09 06:53:15;;;;;;;3.92;2.50;;;;;;;;;;5135383;27;20023;-53
2023/03/09 06:55:41;;;;;;;3.67;2.35;;;;;;;;;;5135013;27;20031;-53
2023/03/09 06:58:08;;;;;;;3.88;2.55;;;;;;;;;;5116160;27;20051;-53
2023/03/09 07:00:43;;;;;;;27.65;16.40;;;;;;;;;;5135262;27;20023;-53
2023/03/09 07:03:13;;;;;;;7.20;3.85;;;;;;;;;;5135544;27;20097;-53
2023/03/09 07:05:39;;;;;;;4.15;2.78;;;;;;;;;;5115867;27;20119;-53
2023/03/09 07:08:05;;;;;;;3.25;2.20;;;;;;;;;;5134986;27;20031;-53
2023/03/09 07:10:31;;;;;;;3.25;1.98;;;;;;;;;;5135342;27;20091;-53
2023/03/09 07:12:57;;;;;;;7.65;5.38;;;;;;;;;;5135089;27;20033;-53
2023/03/09 07:15:23;;;;;;;3.08;2.03;;;16.10;99.90;;;;;;5134989;27;20027;-53
2023/03/09 07:17:49;;;;;;;6.32;3.17;;;16.20;99.90;;;;;;5134875;27;20029;-53
2023/03/09 07:20:15;;;;;;;8.35;4.88;;;16.60;99.90;;;;;;5134850;27;20359;-54
2023/03/09 07:22:41;;;;;;;4.50;3.00;;;;;;;;;;5134977;27;20076;-54
2023/03/09 07:25:08;;;;;;;3.35;2.55;;;16.90;99.90;;;;;;5134922;27;20039;-53
2023/03/09 07:27:34;;;;;;;7.70;6.57;;;;;;;;;;5098925;27;20031;-53
2023/03/09 07:30:00;;;;;;;3.90;2.60;;;;;;;;;;5111869;28;20100;-53
2023/03/09 07:32:26;;;;;;;5.97;2.50;;;19.30;99.90;;;;;;5094790;28;20092;-54
2023/03/09 07:34:51;;;;;;;2.03;1.35;;;19.50;99.90;;;;;;5111830;28;20035;-54
2023/03/09 07:37:17;;;;;;;3.00;1.85;;;19.30;99.90;;;;;;5112059;28;20068;-53
2023/03/09 07:39:43;;;;;;;7.20;5.82;;;19.50;99.90;;;;;;5111781;28;20027;-54
2023/03/09 07:42:08;;;;;;;4.57;2.47;;;19.60;99.70;;;;;;5111707;28;20211;-54
2023/03/09 07:44:34;;;;;;;3.00;2.22;;;19.80;99.40;;;;;;5061043;28;20043;-54
2023/03/09 07:47:00;;;;;;;3.00;1.65;;;;;;;;;;5111635;28;20031;-53
2023/03/09 07:49:26;;;;;;;3.83;2.55;;;20.20;97.90;;;;;;5111658;28;20387;-54
2023/03/09 07:51:52;;;;;;;4.90;1.95;;;;;;;;;;5111674;28;20047;-53
2023/03/09 07:54:17;;;;;;;4.13;2.30;;;20.60;99.90;;;;;;5111626;28;20133;-51
2023/03/09 07:56:47;;;;;;;3.50;2.42;;;20.70;97.20;;;;;;5111455;28;20057;-51
2023/03/09 07:59:15;;;;;;;2.30;1.27;;;21.20;96.60;;;;;;5111531;28;20447;-51
2023/03/09 08:01:41;;;;;;;3.60;1.77;;;20.80;95.20;;;;;;5129577;27;20389;-52
2023/03/09 08:04:07;;;;;;;5.50;1.92;;;21.50;95.20;;;;;;5133821;27;20031;-51
2023/03/09 08:06:33;;;;;;;4.18;2.00;;;21.50;95.00;;;;;;5134372;27;20411;-51
2023/03/09 08:08:59;;;;;;;3.45;1.80;;;21.40;95.00;;;;;;5133891;28;20054;-52
2023/03/09 08:11:25;;;;;;;2.08;1.23;;;20.90;94.10;;;;;;5133988;28;20466;-51
2023/03/09 08:13:51;;;;;;;2.75;1.80;;;20.80;94.30;;;;;;5134255;28;20037;-51
2023/03/09 08:16:16;;;;;;;2.50;2.17;;;20.80;94.50;;;;;;5134469;28;20031;-52
2023/03/09 08:18:42;;;;;;;2.45;1.50;;;;;;;;;;5134423;28;20103;-52
2023/03/09 08:21:11;;;;;;;3.88;2.13;;;22.40;95.30;;;;;;5133890;28;20019;-51
2023/03/09 08:23:43;;;;;;;4.15;1.88;;;22.10;93.30;;;;;;5134159;28;20062;-52
2023/03/09 08:26:11;;;;;;;1.85;1.35;;;22.10;93.60;;;;;;5134077;28;20047;-52
2023/03/09 08:28:38;;;;;;;2.10;1.38;;;;;;;;;;5134288;28;20042;-52
2023/03/09 08:31:04;;;;;;;2.20;1.60;;;;;;;;;;5133778;28;20106;-51
2023/03/09 08:33:31;;;;;;;5.53;2.35;;;19.10;99.90;;;;;;5134106;28;20031;-52
2023/03/09 08:35:57;;;;;;;6.07;2.80;;;21.10;99.90;;;;;;5134345;28;20105;-51
2023/03/09 08:38:22;;;;;;;7.53;4.38;;;21.50;99.90;;;;;;5133876;28;20110;-50
2023/03/09 08:40:48;;;;;;;19.42;14.57;;;;;;;;;;5134329;28;20170;-51
2023/03/09 08:43:15;;;;;;;5.50;4.95;;;;;;;;;;5133693;28;20023;-51
2023/03/09 08:45:40;;;;;;;7.80;4.65;;;21.50;99.90;;;;;;5133698;28;20023;-52
2023/03/09 08:48:06;;;;;;;31.55;12.20;;;21.60;99.90;;;;;;5134248;28;20497;-52
2023/03/09 08:50:33;;;;;;;29.52;11.73;;;;;;;;;;5134038;28;20106;-53
2023/03/09 08:52:58;;;;;;;5.13;2.20;;;22.80;91.50;;;;;;5133681;28;20042;-52
2023/03/09 08:55:24;;;;;;;2.72;1.13;;;22.90;92.40;;;;;;5133853;28;20035;-52
2023/03/09 08:57:51;;;;;;;3.90;1.80;;;22.80;93.00;;;;;;5133311;28;20035;-52
2023/03/09 09:00:18;;;;;;;6.85;1.27;;;22.60;91.90;;;;;;5133826;28;20035;-52
2023/03/09 09:02:43;;;;;;;2.38;1.15;;;22.50;91.50;;;;;;5097777;28;20482;-52
2023/03/09 09:05:10;;;;;;;3.42;1.20;;;22.40;92.10;;;;;;5133613;28;20080;-52
2023/03/09 09:07:36;;;;;;;2.85;1.08;;;22.00;91.90;;;;;;5133907;28;20024;-53
2023/03/09 09:10:03;;;;;;;7.20;1.40;;;21.80;92.70;;;;;;5133645;28;20355;-52
2023/03/09 09:12:32;;;;;;;10.88;4.88;;;21.80;93.00;;;;;;5133934;28;20495;-52
2023/03/09 09:14:58;;;;;;;2.45;1.15;;;21.80;93.10;;;;;;5133829;27;20031;-52
2023/03/09 09:17:23;;;;;;;2.35;1.40;;;21.70;93.30;;;;;;5137231;27;20024;-53
2023/03/09 09:19:51;;;;;;;4.95;1.98;;;21.60;92.90;;;;;;5137329;27;20054;-52
2023/03/09 09:22:17;;;;;;;3.72;1.55;;;21.50;92.50;;;;;;5137351;27;20039;-52
2023/03/09 09:24:43;;;;;;;2.55;1.50;;;21.50;92.70;;;;;;5136968;27;20031;-52
2023/03/09 09:27:10;;;;;;;27.30;11.20;;;21.50;92.90;;;;;;5136670;27;20055;-52
2023/03/09 09:29:36;;;;;;;6.70;2.92;;;21.40;93.50;;;;;;5137075;27;20104;-52
2023/03/09 09:32:08;;;;;;;4.28;2.00;;;21.30;93.70;;;;;;5137484;27;20382;-51
2023/03/09 09:34:34;;;;;;;;;;;21.40;93.70;;;;;;5137334;27;20031;-52
2023/03/09 09:37:01;;;;;;;4.80;1.58;;;21.20;94.10;;;;;;5136858;27;19903;-52
2023/03/09 09:39:32;;;;;;;4.30;1.35;;;21.10;94.20;;;;;;5133681;27;20042;-52
2023/03/09 09:42:04;;;;;;;3.75;1.52;;;21.00;94.20;;;;;;5136653;27;20023;-52
2023/03/09 09:44:43;;;;;;;13.98;4.38;;;20.90;94.40;;;;;;5136660;27;20050;-52
2023/03/09 09:47:16;;;;;;;2.45;1.35;;;20.80;94.60;;;;;;5136600;27;20054;-54
2023/03/09 09:49:45;;;;;;;3.15;1.58;;;20.80;94.90;;;;;;5136464;27;20029;-52
2023/03/09 09:52:34;;;;;;;7.60;4.88;;;20.60;95.50;;;;;;5136585;27;20031;-52
2023/03/09 09:55:00;;;;;;;4.05;1.85;;;20.50;95.60;;;;;;5136836;27;20062;-52
2023/03/09 09:58:08;;;;;;;6.65;2.97;;;20.20;95.80;;;;;;5136392;27;20050;-53
2023/03/09 10:00:37;;;;;;;5.65;3.55;;;20.20;96.20;;;;;;5035733;28;20090;-52
2023/03/09 10:03:06;;;;;;;11.15;5.65;;;20.10;95.80;;;;;;5036138;28;20423;-52
2023/03/09 10:05:46;;;;;;;7.72;4.90;;;20.10;96.00;;;;;;5052772;28;20550;-52
2023/03/09 10:08:42;;;;;;;8.85;2.40;;;20.10;95.70;;;;;;5052878;28;20029;-53
2023/03/09 10:11:19;;;;;;;14.45;2.75;;;20.10;95.50;;;;;;5052847;28;20490;-52
2023/03/09 10:14:06;;;;;;;10.95;3.00;;;20.10;96.00;;;;;;5052803;28;20459;-52
2023/03/09 10:16:43;;;;;;;9.95;3.22;;;20.20;96.20;;;;;;5052603;28;20033;-52
2023/03/09 10:19:16;;;;;;;12.05;6.55;;;20.20;96.20;;;;;;5052904;28;20514;-51
2023/03/09 10:21:48;;;;;;;19.48;5.10;;;20.20;96.90;;;;;;5052705;28;20040;-51
2023/03/09 10:24:22;;;;;;;9.70;4.72;;;20.20;96.50;;;;;;5052455;28;20102;-52
2023/03/09 10:27:04;;;;;;;11.20;6.07;;;20.30;96.40;;;;;;5052053;28;20126;-52
2023/03/09 10:29:50;;;;;;;6.10;2.50;;;20.30;95.10;;;;;;5052472;28;20068;-51
2023/03/09 10:32:21;;;;;;;5.78;1.70;;;20.30;95.00;;;;;;5052337;28;20040;-51
2023/03/09 10:35:03;;;;;;;2.85;1.38;;;20.30;94.00;;;;;;5052367;28;20032;-51
2023/03/09 10:37:34;;;;;;;2.10;1.38;;;20.40;94.40;;;;;;5103628;27;20459;-50
2023/03/09 10:40:14;;;;;;;6.87;2.73;;;20.60;94.80;;;;;;5135737;27;20023;-51
2023/03/09 10:42:39;;;;;;;4.30;1.33;;;20.70;93.00;;;;;;5135647;27;20042;-51
2023/03/09 10:45:25;;;;;;;4.35;2.85;;;20.80;94.40;;;;;;5116493;27;20474;-51
2023/03/09 10:47:52;;;;;;;6.35;3.08;;;20.80;94.90;;;;;;5135629;27;20023;-51
2023/03/09 10:50:19;;;;;;;5.38;2.03;;;20.90;93.40;;;;;;5135357;27;20088;-51
2023/03/09 10:52:45;;;;;;;4.43;1.67;;;20.80;93.50;;;;;;5135190;27;20092;-51
2023/03/09 10:55:29;;;;;;;1.83;1.33;;;20.80;93.70;;;;;;5135103;27;20027;-51
2023/03/09 10:58:00;;;;;;;3.45;1.50;;;20.80;93.00;;;;;;5135495;27;20026;-51
2023/03/09 11:00:26;;;;;;;1.83;1.02;;;20.70;92.30;;;;;;5135427;27;20057;-51
2023/03/09 11:02:54;;;;;;;1.83;1.15;;;20.70;93.30;;;;;;5135161;27;20023;-52
2023/03/09 11:05:21;;;;;;;1.00;0.80;;;20.60;94.10;;;;;;5135585;27;20026;-52
2023/03/09 11:07:52;;;;;;;3.15;1.85;;;20.50;93.30;;;;;;5135264;27;20035;-51
2023/03/09 11:10:29;;;;;;;1.95;1.40;;;20.40;93.00;;;;;;5135321;27;20057;-52
2023/03/09 11:12:56;;;;;;;1.58;0.90;;;20.30;92.80;;;;;;5131965;27;20043;-51
2023/03/09 11:15:29;;;;;;;1.35;1.00;;;20.30;93.50;;;;;;5134766;27;20050;-51
2023/03/09 11:17:57;;;;;;;1.30;1.08;;;20.50;93.50;;;;;;5135171;27;20020;-51
2023/03/09 11:20:30;;;;;;;3.47;2.10;;;20.50;93.30;;;;;;5134648;27;20035;-51
2023/03/09 11:23:17;;;;;;;1.60;1.33;;;20.60;92.50;;;;;;5134699;27;20031;-51
2023/03/09 11:25:43;;;;;;;3.40;1.52;;;20.90;93.10;;;;;;5115231;27;20092;-52
2023/03/09 11:28:14;;;;;;;1.65;1.10;;;21.40;93.00;;;;;;5134762;27;20478;-52
2023/03/09 11:30:40;;;;;;;1.92;1.23;;;21.60;93.20;;;;;;5116328;27;20373;-52
2023/03/09 11:33:11;;;;;;;2.70;1.27;;;21.60;91.90;;;;;;5134567;27;20039;-51
2023/03/09 11:35:37;;;;;;;2.22;1.38;;;21.50;92.30;;;;;;5134385;27;20031;-51
2023/03/09 11:38:10;;;;;;;1.00;0.73;;;21.40;92.70;;;;;;5098003;27;20027;-51
2023/03/09 11:40:39;;;;;;;1.13;0.60;;;21.30;92.20;;;;;;5135170;27;20039;-51
2023/03/09 11:43:25;;;;;;;3.25;1.50;;;21.20;92.80;;;;;;5134563;27;20023;-52
2023/03/09 11:45:56;;;;;;;1.27;0.93;;;21.10;93.40;;;;;;5134619;27;20023;-52
2023/03/09 11:48:32;;;;;;;1.52;1.20;;;21.10;92.60;;;;;;5134462;27;20374;-52
2023/03/09 11:51:12;;;;;;;1.77;1.20;;;21.20;92.30;;;;;;5134718;27;20023;-52
2023/03/09 11:53:47;;;;;;;1.08;0.90;;;22.20;93.40;;;;;;5134743;27;20492;-51
2023/03/09 11:56:17;;;;;;;3.63;2.20;;;;;;;;;;5134072;27;20031;-52
2023/03/09 11:58:47;;;;;;;2.35;1.30;;;22.70;99.60;;;;;;5134256;27;20106;-52
2023/03/09 12:02:01;;;;;;;2.88;1.20;;;22.60;99.90;;;;;;5134365;27;20023;-52
2023/03/09 12:04:27;;;;;;;4.68;2.33;;;22.60;99.90;;;;;;5034040;28;20041;-52
2023/03/09 12:07:00;;;;;;;3.22;1.52;;;22.50;99.90;;;;;;5050947;28;20517;-52
2023/03/09 12:09:51;;;;;;;1.10;0.80;;;22.10;99.90;;;;;;5050907;28;20091;-51
2023/03/09 12:12:28;;;;;;;3.53;1.05;;;21.80;99.90;;;;;;5050692;28;20083;-51
2023/03/09 12:15:19;;;;;;;1.48;0.90;;;21.50;91.60;;;;;;5030724;28;20495;-51
2023/03/09 12:17:59;;;;;;;1.20;0.80;;;21.30;92.50;;;;;;4991442;28;20081;-52
2023/03/09 12:20:49;;;;;;;1.40;1.00;;;21.20;92.50;;;;;;4991610;28;20278;-52
2023/03/09 12:23:36;;;;;;;3.78;1.20;;;21.00;92.30;;;;;;4991566;28;20027;-52
2023/03/09 12:26:22;;;;;;;2.80;1.58;;;20.90;93.00;;;;;;4983165;28;20541;-52
2023/03/09 12:29:04;;;;;;;2.53;1.20;;;20.70;93.50;;;;;;4971901;28;20625;-52
2023/03/09 12:31:35;;;;;;;1.83;0.95;;;20.60;94.60;;;;;;4972193;28;20034;-52
2023/03/09 12:34:08;;;;;;;5.63;3.00;;;20.40;94.90;;;;;;4971920;28;20038;-52
2023/03/09 12:36:37;;;;;;;7.07;4.30;;;20.20;95.80;;;;;;4971918;28;20168;-52
2023/03/09 12:39:32;;;;;;;2.97;1.33;;;20.10;96.00;;;;;;4971888;28;20038;-52
2023/03/09 12:41:59;;;;;;;8.07;5.57;;;;;;;;;;4999431;28;20049;-52
2023/03/09 12:44:43;;;;;;;4.65;2.25;;;19.90;96.10;;;;;;5010882;28;20030;-52
2023/03/09 12:47:36;;;;;;;4.50;2.83;;;19.90;96.60;;;;;;5011062;28;20030;-52
2023/03/09 12:50:05;;;;;;;10.52;5.32;;;20.00;96.30;;;;;;5011699;28;20030;-52
2023/03/09 12:52:48;;;;;;;6.22;3.25;;;20.10;96.40;;;;;;5009322;28;20045;-52
2023/03/09 12:55:20;;;;;;;4.35;2.45;;;20.10;96.30;;;;;;5074598;28;20036;-52
2023/03/09 12:57:47;;;;;;;3.45;2.60;;;20.10;96.20;;;;;;5097043;28;20042;-52
2023/03/09 13:00:25;;;;;;;3.25;1.92;;;20.10;96.00;;;;;;5096692;28;20038;-52
2023/03/09 13:02:56;;;;;;;2.78;1.40;;;20.10;95.80;;;;;;5096683;28;20028;-52
2023/03/09 13:05:52;;;;;;;1.80;1.20;;;20.00;95.90;;;;;;5096740;28;20027;-52
2023/03/09 13:08:33;;;;;;;3.47;1.70;;;19.90;94.10;;;;;;5014381;28;20375;-52